Time;durP1;ratioP1;P1;durP2;ratioP2;P2;SDS_P1;SDS_P2;PMS_P1;PMS_P2;Temp;Humidity;BMP_temperature;BMP_pressure;BME280_temperature;BME280_humidity;BME280_pressure;Samples;Min_cycle;Max_cycle;Signal;HPM_P1;HPM_P2
2021/04/15 00:01:30;;;;;;;2.85;1.38;;;4.70;92.70;;;;;;5116518;28;20438;-71
2021/04/15 00:03:56;;;;;;;4.25;1.45;;;4.70;92.80;;;;;;5116769;27;20043;-71
2021/04/15 00:06:25;;;;;;;4.68;1.80;;;4.70;92.70;;;;;;5116257;28;20101;-71
2021/04/15 00:08:53;;;;;;;3.65;1.85;;;4.60;92.80;;;;;;5116533;28;20036;-70
2021/04/15 00:11:21;;;;;;;4.93;1.80;;;4.60;92.80;;;;;;5116331;27;20063;-71
2021/04/15 00:13:52;;;;;;;2.47;1.38;;;4.60;92.90;;;;;;5116222;28;20043;-71
2021/04/15 00:16:18;;;;;;;2.03;1.52;;;4.50;92.80;;;;;;5115920;28;20436;-71
2021/04/15 00:18:45;;;;;;;4.10;1.63;;;4.50;92.90;;;;;;5116222;28;20194;-71
2021/04/15 00:21:12;;;;;;;3.15;1.70;;;4.50;92.90;;;;;;5116265;28;20399;-71
2021/04/15 00:23:38;;;;;;;2.28;1.33;;;4.50;92.80;;;;;;5116069;28;20031;-71
2021/04/15 00:26:06;;;;;;;5.50;1.90;;;4.40;92.80;;;;;;5115689;28;20044;-71
2021/04/15 00:28:33;;;;;;;3.13;1.83;;;4.40;92.80;;;;;;5116348;28;20383;-71
2021/04/15 00:30:59;;;;;;;4.65;2.28;;;4.40;92.80;;;;;;5115168;28;20035;-71
2021/04/15 00:33:25;;;;;;;3.20;2.25;;;4.40;92.90;;;;;;5115865;28;20043;-71
2021/04/15 00:35:51;;;;;;;3.60;2.00;;;4.30;92.90;;;;;;5115326;28;20406;-71
2021/04/15 00:38:18;;;;;;;3.78;2.20;;;4.30;93.00;;;;;;5115980;28;20118;-71
2021/04/15 00:40:47;;;;;;;4.00;2.45;;;4.30;93.10;;;;;;5115785;28;20436;-71
2021/04/15 00:43:14;;;;;;;4.40;2.95;;;4.30;93.20;;;;;;5115715;28;20039;-71
2021/04/15 00:45:42;;;;;;;2.53;1.80;;;4.20;93.10;;;;;;5115332;28;20437;-71
2021/04/15 00:48:24;;;;;;;3.55;1.85;;;4.20;93.00;;;;;;5115588;27;20064;-71
2021/04/15 00:51:05;;;;;;;2.17;1.75;;;4.10;92.80;;;;;;5115489;28;20115;-71
2021/04/15 00:53:43;;;;;;;3.35;1.98;;;4.10;92.90;;;;;;5116103;28;20067;-71
2021/04/15 00:56:10;;;;;;;2.63;1.70;;;4.00;92.90;;;;;;5115061;27;20092;-71
2021/04/15 00:58:37;;;;;;;4.18;1.85;;;4.00;93.00;;;;;;5115322;28;20552;-70
2021/04/15 01:01:03;;;;;;;3.60;1.95;;;4.00;92.90;;;;;;5115310;28;20173;-71
2021/04/15 01:03:29;;;;;;;4.03;1.88;;;4.00;93.00;;;;;;5115580;28;20031;-71
2021/04/15 01:05:55;;;;;;;2.80;1.75;;;4.00;93.10;;;;;;5114735;28;20043;-71
2021/04/15 01:08:20;;;;;;;4.88;2.17;;;3.90;93.00;;;;;;5114750;28;20062;-71
2021/04/15 01:10:55;;;;;;;3.25;2.20;;;4.00;93.10;;;;;;5115736;28;20043;-71
2021/04/15 01:13:30;;;;;;;4.13;2.25;;;3.90;93.10;;;;;;5115723;28;20067;-70
2021/04/15 01:16:13;;;;;;;3.50;1.95;;;3.90;93.00;;;;;;5113291;28;20043;-71
2021/04/15 01:19:04;;;;;;;3.03;2.22;;;3.90;93.10;;;;;;5114972;28;20039;-71
2021/04/15 01:21:58;;;;;;;3.90;2.00;;;3.80;93.10;;;;;;5113969;28;20040;-71
2021/04/15 01:24:46;;;;;;;7.05;2.47;;;3.70;93.00;;;;;;5114820;28;20050;-71
2021/04/15 01:27:40;;;;;;;3.00;2.20;;;3.70;93.20;;;;;;5114725;28;20042;-71
2021/04/15 01:30:37;;;;;;;3.75;2.33;;;3.60;93.20;;;;;;5115475;28;20476;-71
2021/04/15 01:33:37;;;;;;;3.70;2.28;;;3.60;93.20;;;;;;5114703;28;20074;-70
2021/04/15 01:36:21;;;;;;;3.65;2.35;;;3.50;93.10;;;;;;5113897;28;20118;-73
2021/04/15 01:38:55;;;;;;;3.58;2.35;;;3.50;93.30;;;;;;5114636;28;20097;-73
2021/04/15 01:41:31;;;;;;;3.60;2.42;;;3.50;93.30;;;;;;5114653;28;20032;-73
2021/04/15 01:44:28;;;;;;;4.13;2.90;;;3.50;93.30;;;;;;5114488;27;20071;-73
2021/04/15 01:47:00;;;;;;;4.63;2.60;;;3.50;93.20;;;;;;5107681;27;20075;-73
2021/04/15 01:49:30;;;;;;;5.15;2.60;;;3.50;93.30;;;;;;5114949;28;20075;-73
2021/04/15 01:51:56;;;;;;;4.00;2.53;;;3.50;93.70;;;;;;5114416;28;20036;-73
2021/04/15 01:54:38;;;;;;;4.40;2.50;;;3.50;93.70;;;;;;5113726;28;20111;-73
2021/04/15 01:57:13;;;;;;;6.35;3.42;;;3.40;93.70;;;;;;5114271;28;20154;-73
2021/04/15 01:59:50;;;;;;;4.38;2.85;;;3.40;93.90;;;;;;5114773;28;20471;-73
2021/04/15 02:02:22;;;;;;;5.72;3.55;;;3.40;93.70;;;;;;5114524;28;20035;-73
2021/04/15 02:05:13;;;;;;;3.63;2.38;;;3.40;93.80;;;;;;5113836;28;20031;-73
2021/04/15 02:07:50;;;;;;;6.32;2.90;;;3.40;93.70;;;;;;5109745;28;20051;-73
2021/04/15 02:10:17;;;;;;;4.00;2.20;;;3.30;93.60;;;;;;5114336;28;20036;-73
2021/04/15 02:12:48;;;;;;;4.10;2.50;;;3.30;93.50;;;;;;5114481;28;20524;-73
2021/04/15 02:15:22;;;;;;;4.43;2.72;;;3.30;93.50;;;;;;5113782;28;20501;-73
2021/04/15 02:17:49;;;;;;;4.45;2.72;;;3.30;93.40;;;;;;5114470;28;20040;-73
2021/04/15 02:20:19;;;;;;;5.68;2.72;;;3.30;93.50;;;;;;5113244;28;20031;-73
2021/04/15 02:23:05;;;;;;;3.85;2.10;;;3.30;93.40;;;;;;5112979;28;20038;-73
2021/04/15 02:25:43;;;;;;;4.72;2.63;;;3.20;93.40;;;;;;5113671;28;20035;-73
2021/04/15 02:28:15;;;;;;;4.28;2.53;;;3.20;93.40;;;;;;5113890;28;20036;-73
2021/04/15 02:30:43;;;;;;;4.15;2.65;;;3.20;93.40;;;;;;5114071;28;20048;-73
2021/04/15 02:33:33;;;;;;;3.97;2.15;;;3.20;93.50;;;;;;5113715;28;20070;-73
2021/04/15 02:36:02;;;;;;;4.43;2.80;;;3.20;93.50;;;;;;5113882;28;20043;-73
2021/04/15 02:38:37;;;;;;;4.35;3.00;;;3.20;93.60;;;;;;5113647;28;20418;-73
2021/04/15 02:41:06;;;;;;;4.65;2.90;;;3.20;93.60;;;;;;5130238;27;20039;-73
2021/04/15 02:43:40;;;;;;;3.95;2.78;;;3.20;93.60;;;;;;5113655;28;20040;-73
2021/04/15 02:46:14;;;;;;;2.90;2.40;;;3.20;93.70;;;;;;5113742;28;20040;-73
2021/04/15 02:48:42;;;;;;;5.72;2.47;;;3.20;93.60;;;;;;5114385;28;20134;-73
2021/04/15 02:51:13;;;;;;;5.82;2.10;;;3.20;93.60;;;;;;5113837;28;20039;-73
2021/04/15 02:53:54;;;;;;;4.40;2.50;;;3.20;93.60;;;;;;5113909;28;20051;-73
2021/04/15 02:56:27;;;;;;;4.57;2.28;;;3.20;93.70;;;;;;5113215;28;20043;-73
2021/04/15 02:59:26;;;;;;;5.15;2.95;;;3.20;93.60;;;;;;5114124;28;20031;-73
2021/04/15 03:02:00;;;;;;;5.32;2.00;;;3.10;93.70;;;;;;5105729;28;20058;-73
2021/04/15 03:04:26;;;;;;;3.72;2.50;;;3.10;93.80;;;;;;5113187;28;20395;-73
2021/04/15 03:06:57;;;;;;;6.47;2.47;;;3.10;93.90;;;;;;5113209;28;20047;-73
2021/04/15 03:09:24;;;;;;;4.65;2.78;;;3.10;93.90;;;;;;5113649;28;20088;-73
2021/04/15 03:11:59;;;;;;;6.30;2.65;;;3.10;93.90;;;;;;5113321;28;20450;-73
2021/04/15 03:14:29;;;;;;;8.30;3.10;;;3.10;94.00;;;;;;5113086;28;20032;-73
2021/04/15 03:17:01;;;;;;;5.90;3.22;;;3.00;94.10;;;;;;5113132;28;20484;-73
2021/04/15 03:19:38;;;;;;;5.30;2.70;;;3.00;94.10;;;;;;5113990;28;20036;-73
2021/04/15 03:22:17;;;;;;;4.82;2.65;;;3.10;94.30;;;;;;5114062;28;20113;-73
2021/04/15 03:24:46;;;;;;;4.68;3.00;;;3.10;94.20;;;;;;5113695;28;20036;-73
2021/04/15 03:27:38;;;;;;;5.53;3.15;;;3.10;94.20;;;;;;5113176;28;20043;-73
2021/04/15 03:30:16;;;;;;;7.25;3.42;;;3.10;94.40;;;;;;5094796;28;20048;-73
2021/04/15 03:33:14;;;;;;;8.75;4.13;;;3.10;94.40;;;;;;5117710;27;20445;-73
2021/04/15 03:35:48;;;;;;;8.15;3.08;;;3.20;94.70;;;;;;5116209;28;20110;-73
2021/04/15 03:38:33;;;;;;;9.82;3.47;;;3.20;94.50;;;;;;5116973;28;20169;-73
2021/04/15 03:41:09;;;;;;;6.95;3.30;;;3.30;94.60;;;;;;5117842;28;20029;-73
2021/04/15 03:43:44;;;;;;;4.68;2.85;;;3.30;94.60;;;;;;5116936;28;20028;-73
2021/04/15 03:46:18;;;;;;;6.97;3.03;;;3.30;94.40;;;;;;5116503;28;20035;-73
2021/04/15 03:48:49;;;;;;;7.28;3.65;;;3.30;94.30;;;;;;5117265;28;20032;-73
2021/04/15 03:51:23;;;;;;;8.55;3.75;;;3.30;94.30;;;;;;5115438;28;20059;-73
2021/04/15 03:53:56;;;;;;;7.13;3.70;;;3.30;94.40;;;;;;5117329;28;20039;-73
2021/04/15 03:56:29;;;;;;;8.45;3.58;;;3.30;94.40;;;;;;5116482;28;20118;-73
2021/04/15 03:59:08;;;;;;;10.38;4.05;;;3.40;94.40;;;;;;5116931;28;20136;-73
2021/04/15 04:01:40;;;;;;;5.88;3.72;;;3.40;94.30;;;;;;5116735;27;20049;-73
2021/04/15 04:04:55;;;;;;;8.80;3.63;;;3.40;94.30;;;;;;5116344;28;20114;-73
2021/04/15 04:07:41;;;;;;;8.38;4.28;;;3.40;94.60;;;;;;5073592;28;20465;-73
2021/04/15 04:10:14;;;;;;;9.10;4.60;;;3.40;94.40;;;;;;5115478;28;20040;-73
2021/04/15 04:13:16;;;;;;;8.77;4.33;;;3.40;94.30;;;;;;5117059;28;20047;-73
2021/04/15 04:15:47;;;;;;;9.63;3.50;;;3.40;94.30;;;;;;5108358;28;20051;-73
2021/04/15 04:18:15;;;;;;;6.82;3.60;;;3.40;94.20;;;;;;5116883;28;20050;-73
2021/04/15 04:20:42;;;;;;;10.18;4.90;;;3.30;94.20;;;;;;5116357;28;20118;-73
2021/04/15 04:23:48;;;;;;;8.38;4.30;;;3.30;94.30;;;;;;5116287;28;20046;-73
2021/04/15 04:26:34;;;;;;;7.05;3.75;;;3.20;94.20;;;;;;5115862;28;20050;-73
2021/04/15 04:29:07;;;;;;;10.43;3.70;;;3.30;94.30;;;;;;5132013;27;20119;-73
2021/04/15 04:31:38;;;;;;;8.05;4.00;;;3.20;94.30;;;;;;5116052;28;20039;-73
2021/04/15 04:34:05;;;;;;;10.52;4.38;;;3.20;94.30;;;;;;5115915;28;20044;-73
2021/04/15 04:36:36;;;;;;;11.77;5.18;;;3.20;94.30;;;;;;5115453;28;20395;-73
2021/04/15 04:39:06;;;;;;;9.90;5.00;;;3.20;94.30;;;;;;5115972;27;20032;-73
2021/04/15 04:41:43;;;;;;;7.75;4.38;;;3.20;94.30;;;;;;5116036;28;20106;-73
2021/04/15 04:44:19;;;;;;;6.45;4.50;;;3.30;94.30;;;;;;5115657;28;20097;-73
2021/04/15 04:46:48;;;;;;;8.15;4.55;;;3.30;94.30;;;;;;5115537;28;20111;-73
2021/04/15 04:49:37;;;;;;;14.98;5.28;;;3.30;94.40;;;;;;5116109;28;20084;-73
2021/04/15 04:52:06;;;;;;;8.02;4.65;;;3.30;94.60;;;;;;5114446;28;20036;-71
2021/04/15 04:54:32;;;;;;;7.88;4.10;;;3.20;94.30;;;;;;5115305;28;20063;-71
2021/04/15 04:57:18;;;;;;;10.90;4.13;;;3.20;94.30;;;;;;5115472;27;20067;-71
2021/04/15 05:00:09;;;;;;;10.90;4.57;;;3.20;94.30;;;;;;5115318;28;20050;-71
2021/04/15 05:02:34;;;;;;;6.03;3.60;;;3.30;94.30;;;;;;5109286;27;20097;-71
2021/04/15 05:05:22;;;;;;;8.35;4.68;;;3.30;94.40;;;;;;5115460;28;20046;-71
2021/04/15 05:07:53;;;;;;;6.28;4.32;;;3.30;94.30;;;;;;5115081;28;20039;-71
2021/04/15 05:10:23;;;;;;;8.45;4.55;;;3.30;94.20;;;;;;5115244;28;20036;-71
2021/04/15 05:13:01;;;;;;;8.63;4.00;;;3.40;94.10;;;;;;5114978;28;20047;-71
2021/04/15 05:15:27;;;;;;;6.93;4.40;;;3.50;94.10;;;;;;5114912;28;20093;-71
2021/04/15 05:17:53;;;;;;;9.13;4.63;;;3.60;94.10;;;;;;5115214;28;20063;-71
2021/04/15 05:20:20;;;;;;;8.68;4.13;;;3.70;94.00;;;;;;5115538;28;20372;-71
2021/04/15 05:23:23;;;;;;;8.25;4.88;;;3.80;94.00;;;;;;5114933;28;20047;-71
2021/04/15 05:26:08;;;;;;;13.52;5.88;;;3.90;94.00;;;;;;5111713;28;20054;-71
2021/04/15 05:28:36;;;;;;;9.27;5.43;;;4.00;93.90;;;;;;5115235;28;20047;-71
2021/04/15 05:31:08;;;;;;;7.30;4.88;;;4.20;93.70;;;;;;5114808;28;20115;-70
2021/04/15 05:33:35;;;;;;;9.50;5.03;;;4.40;93.60;;;;;;5115352;28;20110;-69
2021/04/15 05:36:09;;;;;;;9.93;6.13;;;4.60;93.40;;;;;;5114096;28;20089;-71
2021/04/15 05:38:53;;;;;;;;;;;4.80;93.30;;;;;;5115365;28;20055;-71
2021/04/15 05:41:26;;;;;;;9.15;4.90;;;5.00;93.60;;;;;;5113504;28;19922;-71
2021/04/15 05:43:56;;;;;;;6.18;4.18;;;5.20;93.00;;;;;;5115147;28;20482;-71
2021/04/15 05:46:31;;;;;;;12.50;5.50;;;5.40;92.80;;;;;;5114028;28;20039;-71
2021/04/15 05:49:01;;;;;;;12.02;4.95;;;5.60;92.70;;;;;;5114592;28;20050;-71
2021/04/15 05:51:39;;;;;;;8.85;3.88;;;5.80;92.50;;;;;;5114665;28;20039;-71
2021/04/15 05:54:10;;;;;;;12.57;4.35;;;6.00;92.20;;;;;;5114423;28;20040;-71
2021/04/15 05:57:13;;;;;;;7.85;5.03;;;6.20;92.50;;;;;;5113766;28;20047;-71
2021/04/15 05:59:44;;;;;;;12.73;5.72;;;6.40;92.10;;;;;;5112092;28;20112;-71
2021/04/15 06:02:31;;;;;;;11.02;4.47;;;6.60;91.90;;;;;;5113387;28;20028;-71
2021/04/15 06:05:19;;;;;;;8.63;4.43;;;6.80;91.80;;;;;;5113904;28;20036;-71
2021/04/15 06:07:48;;;;;;;8.40;4.60;;;6.70;91.50;;;;;;5114050;28;20084;-71
2021/04/15 06:10:16;;;;;;;8.85;4.07;;;7.00;91.50;;;;;;5113990;28;20084;-71
2021/04/15 06:13:00;;;;;;;8.52;3.53;;;7.20;91.20;;;;;;5114527;28;20369;-71
2021/04/15 06:15:35;;;;;;;7.30;3.50;;;7.40;91.10;;;;;;5113866;28;20047;-71
2021/04/15 06:18:32;;;;;;;9.80;4.25;;;7.50;90.70;;;;;;5113880;28;20050;-71
2021/04/15 06:21:23;;;;;;;8.50;3.95;;;7.60;90.40;;;;;;5113985;28;20479;-71
2021/04/15 06:23:59;;;;;;;8.32;4.18;;;7.70;90.40;;;;;;5114508;28;20035;-71
2021/04/15 06:26:28;;;;;;;9.40;3.65;;;7.60;90.00;;;;;;5114176;28;20092;-71
2021/04/15 06:28:58;;;;;;;7.70;3.95;;;7.70;90.40;;;;;;5114041;28;20043;-71
2021/04/15 06:31:36;;;;;;;5.55;3.20;;;7.60;89.80;;;;;;5113854;27;20053;-71
2021/04/15 06:34:06;;;;;;;8.48;3.80;;;7.80;88.00;;;;;;5113910;28;20096;-71
2021/04/15 06:36:50;;;;;;;9.63;4.20;;;8.00;89.00;;;;;;5112954;28;20063;-71
2021/04/15 06:39:30;;;;;;;;;;;8.00;87.90;;;;;;5112912;28;20054;-71
2021/04/15 06:42:20;;;;;;;10.10;4.55;;;8.30;88.10;;;;;;5113694;28;20341;-71
2021/04/15 06:44:49;;;;;;;10.88;4.32;;;8.40;86.50;;;;;;5113269;28;20040;-71
2021/04/15 06:47:51;;;;;;;8.90;4.50;;;8.80;86.90;;;;;;5113945;28;20063;-70
2021/04/15 06:50:36;;;;;;;18.88;4.95;;;8.90;86.00;;;;;;5112711;28;20424;-71
2021/04/15 06:53:01;;;;;;;8.93;4.57;;;9.10;86.10;;;;;;5112510;27;20568;-71
2021/04/15 06:55:36;;;;;;;10.70;4.72;;;9.10;85.90;;;;;;5112332;28;20036;-71
2021/04/15 06:58:30;;;;;;;11.55;4.57;;;9.10;85.20;;;;;;5112728;28;20048;-70
2021/04/15 07:01:14;;;;;;;10.30;4.75;;;9.20;85.70;;;;;;5112633;28;20036;-71
2021/04/15 07:04:04;;;;;;;12.60;5.32;;;9.10;86.00;;;;;;5112049;28;20078;-71
2021/04/15 07:06:59;;;;;;;9.57;3.42;;;9.20;86.30;;;;;;5115752;28;20460;-71
2021/04/15 07:10:11;;;;;;;12.38;3.15;;;9.20;84.40;;;;;;5116753;28;20043;-71
2021/04/15 07:12:57;;;;;;;6.50;3.35;;;9.10;83.40;;;;;;5117601;28;20376;-71
2021/04/15 07:15:35;;;;;;;9.20;3.42;;;9.10;83.80;;;;;;5117295;28;20032;-71
2021/04/15 07:18:30;;;;;;;7.38;4.18;;;8.80;84.30;;;;;;5117367;28;20040;-71
2021/04/15 07:21:02;;;;;;;8.45;3.10;;;8.70;85.10;;;;;;5117654;28;20067;-71
2021/04/15 07:23:36;;;;;;;11.82;4.80;;;8.80;85.40;;;;;;5117480;28;20035;-71
2021/04/15 07:26:35;;;;;;;10.38;4.60;;;8.90;83.90;;;;;;5116863;28;20036;-71
2021/04/15 07:29:40;;;;;;;12.02;4.45;;;9.00;82.90;;;;;;5117776;28;20042;-71
2021/04/15 07:32:30;;;;;;;13.13;4.25;;;9.00;83.10;;;;;;5117885;28;20113;-71
2021/04/15 07:35:35;;;;;;;17.55;5.88;;;8.80;84.00;;;;;;5116869;28;20031;-71
2021/04/15 07:38:07;;;;;;;11.27;4.57;;;9.00;83.70;;;;;;5116938;28;20044;-71
2021/04/15 07:41:10;;;;;;;6.70;3.80;;;9.00;84.10;;;;;;5116942;28;20395;-71
2021/04/15 07:44:06;;;;;;;12.68;4.55;;;9.20;82.70;;;;;;5107519;28;20467;-71
2021/04/15 07:46:40;;;;;;;10.18;3.97;;;9.50;83.00;;;;;;5117021;28;20039;-71
2021/04/15 07:49:28;;;;;;;7.10;3.10;;;9.20;81.70;;;;;;5117575;28;20035;-71
2021/04/15 07:52:16;;;;;;;6.95;2.97;;;9.50;82.50;;;;;;5117139;28;20035;-71
2021/04/15 07:55:04;;;;;;;7.28;3.45;;;9.70;79.00;;;;;;5116747;28;20032;-71
2021/04/15 07:58:06;;;;;;;10.07;3.67;;;9.90;77.70;;;;;;5116658;28;20039;-71
2021/04/15 08:01:19;;;;;;;8.95;4.00;;;9.80;79.70;;;;;;5116891;28;20577;-71
2021/04/15 08:04:22;;;;;;;10.48;4.25;;;9.90;78.90;;;;;;5084333;28;20052;-71
2021/04/15 08:07:12;;;;;;;9.30;3.70;;;9.70;79.10;;;;;;5116357;28;20039;-71
2021/04/15 08:09:57;;;;;;;7.25;3.10;;;9.70;79.40;;;;;;5116329;28;20036;-71
2021/04/15 08:12:40;;;;;;;5.90;3.58;;;9.30;78.20;;;;;;5116278;28;20114;-71
2021/04/15 08:15:08;;;;;;;9.67;4.03;;;9.40;79.20;;;;;;5116291;28;20032;-71
2021/04/15 08:18:02;;;;;;;9.40;3.70;;;9.30;78.00;;;;;;5114914;28;20460;-71
2021/04/15 08:20:50;;;;;;;9.93;5.13;;;9.70;78.10;;;;;;5116959;28;20089;-71
2021/04/15 08:23:19;;;;;;;7.15;3.63;;;9.90;77.30;;;;;;5116281;28;20082;-71
2021/04/15 08:26:26;;;;;;;11.65;4.22;;;9.90;76.80;;;;;;5114368;28;20398;-71
2021/04/15 08:29:19;;;;;;;10.27;4.07;;;10.20;75.20;;;;;;5116029;28;20039;-71
2021/04/15 08:31:57;;;;;;;8.00;3.60;;;10.20;74.40;;;;;;5116548;28;20043;-71
2021/04/15 08:34:40;;;;;;;7.30;3.17;;;10.30;74.40;;;;;;5114634;28;20040;-72
2021/04/15 08:37:46;;;;;;;8.50;3.20;;;10.10;73.50;;;;;;5116172;28;20042;-71
2021/04/15 08:40:21;;;;;;;7.18;2.58;;;10.30;73.90;;;;;;5116229;28;20032;-71
2021/04/15 08:42:59;;;;;;;6.22;2.95;;;10.40;69.80;;;;;;5115908;28;20044;-71
2021/04/15 08:45:35;;;;;;;8.93;3.42;;;10.50;69.70;;;;;;5114020;28;20038;-71
2021/04/15 08:48:06;;;;;;;10.02;3.17;;;10.50;69.80;;;;;;5115925;28;20043;-71
2021/04/15 08:50:58;;;;;;;4.85;2.70;;;10.60;68.70;;;;;;5115674;28;20036;-72
2021/04/15 08:54:01;;;;;;;9.90;2.90;;;10.60;69.10;;;;;;5115581;28;20078;-71
2021/04/15 08:56:33;;;;;;;7.07;2.40;;;10.70;66.00;;;;;;5115191;28;20039;-71
2021/04/15 08:59:04;;;;;;;5.60;2.42;;;10.80;64.40;;;;;;5115509;28;20472;-71
2021/04/15 09:01:36;;;;;;;6.70;2.67;;;10.90;65.90;;;;;;5115939;28;20455;-71
2021/04/15 09:04:22;;;;;;;5.82;3.15;;;10.90;65.80;;;;;;5115359;28;20031;-71
2021/04/15 09:06:57;;;;;;;5.93;2.38;;;10.80;66.60;;;;;;5115272;28;20096;-71
2021/04/15 09:09:23;;;;;;;7.35;2.65;;;10.90;67.20;;;;;;5115637;28;20096;-71
2021/04/15 09:12:03;;;;;;;7.78;2.00;;;11.00;64.90;;;;;;5115133;28;20452;-72
2021/04/15 09:15:10;;;;;;;8.80;2.03;;;11.10;64.10;;;;;;5114419;27;20051;-70
2021/04/15 09:17:47;;;;;;;5.97;2.25;;;11.20;58.70;;;;;;5115225;28;20119;-70
2021/04/15 09:20:25;;;;;;;3.28;1.23;;;11.20;62.70;;;;;;5115152;28;20035;-70
2021/04/15 09:23:17;;;;;;;4.80;2.08;;;11.30;56.50;;;;;;5114002;28;20042;-72
2021/04/15 09:26:01;;;;;;;5.72;2.17;;;11.30;55.60;;;;;;5115047;28;20040;-72
2021/04/15 09:28:50;;;;;;;;;;;11.00;56.00;;;;;;5114991;28;20517;-72
2021/04/15 09:31:19;;;;;;;5.40;2.15;;;11.00;55.90;;;;;;5085683;28;19916;-72
2021/04/15 09:33:57;;;;;;;4.80;2.10;;;10.80;57.20;;;;;;5114760;28;20047;-72
2021/04/15 09:36:49;;;;;;;7.85;1.75;;;10.80;58.30;;;;;;5114091;28;20038;-72
2021/04/15 09:39:23;;;;;;;2.88;1.25;;;10.90;55.40;;;;;;5114718;28;20042;-72
2021/04/15 09:42:19;;;;;;;4.10;1.83;;;10.80;50.40;;;;;;5114629;28;20112;-72
2021/04/15 09:45:12;;;;;;;4.68;1.95;;;10.90;55.30;;;;;;5113391;28;20064;-72
2021/04/15 09:48:14;;;;;;;4.95;2.30;;;10.90;55.00;;;;;;5115213;28;20063;-72
2021/04/15 09:51:02;;;;;;;4.45;1.85;;;10.90;54.20;;;;;;5114826;28;20032;-72
2021/04/15 09:53:56;;;;;;;6.70;1.83;;;10.90;53.20;;;;;;5124808;27;20035;-72
2021/04/15 09:56:40;;;;;;;;;;;10.70;55.40;;;;;;5135111;27;20039;-72
2021/04/15 09:59:51;;;;;;;3.30;1.90;;;10.70;53.80;;;;;;5134923;27;20079;-72
2021/04/15 10:02:56;;;;;;;3.42;1.55;;;10.80;55.60;;;;;;5135483;27;20168;-72
2021/04/15 10:05:45;;;;;;;3.20;1.73;;;10.70;50.70;;;;;;5125362;27;20120;-72
2021/04/15 10:08:23;;;;;;;3.42;1.58;;;10.80;52.50;;;;;;5134811;27;20035;-72
2021/04/15 10:11:06;;;;;;;5.00;1.83;;;10.80;54.00;;;;;;5133491;27;20042;-72
2021/04/15 10:13:43;;;;;;;3.70;1.48;;;11.00;53.00;;;;;;5135280;27;20035;-72
2021/04/15 10:16:29;;;;;;;2.83;1.20;;;10.80;50.30;;;;;;5134247;27;20035;-72
2021/04/15 10:19:12;;;;;;;4.20;1.67;;;10.40;46.10;;;;;;5135375;27;20035;-72
2021/04/15 10:21:54;;;;;;;3.55;1.27;;;10.50;49.10;;;;;;5134682;27;20084;-72
2021/04/15 10:24:36;;;;;;;3.15;1.20;;;10.60;50.40;;;;;;5134837;27;20039;-73
2021/04/15 10:27:48;;;;;;;5.10;1.52;;;10.60;47.40;;;;;;5134460;27;20384;-72
2021/04/15 10:30:29;;;;;;;2.47;1.15;;;10.60;47.20;;;;;;5134605;27;20035;-72
2021/04/15 10:33:23;;;;;;;3.40;1.20;;;10.50;46.00;;;;;;5135029;27;20030;-72
2021/04/15 10:36:04;;;;;;;;;;;10.40;45.60;;;;;;5134585;27;20046;-72
2021/04/15 10:38:53;;;;;;;3.50;1.67;;;10.20;46.20;;;;;;5134517;27;19923;-72
2021/04/15 10:41:25;;;;;;;2.95;1.33;;;10.40;47.40;;;;;;5134032;27;20482;-72
2021/04/15 10:44:06;;;;;;;4.53;1.33;;;10.20;45.30;;;;;;5134095;27;20075;-72
2021/04/15 10:46:49;;;;;;;2.03;1.00;;;10.40;45.20;;;;;;5133841;27;20039;-72
2021/04/15 10:49:33;;;;;;;4.30;1.20;;;10.30;44.10;;;;;;5133627;28;20092;-72
2021/04/15 10:52:30;;;;;;;2.20;1.20;;;10.40;43.80;;;;;;5134187;27;20442;-72
2021/04/15 10:55:20;;;;;;;4.43;1.20;;;10.40;44.80;;;;;;5126862;28;20065;-72
2021/04/15 10:57:46;;;;;;;4.07;1.50;;;10.40;43.60;;;;;;5134021;27;20062;-72
2021/04/15 11:00:21;;;;;;;4.15;1.33;;;10.40;44.60;;;;;;5134468;27;20039;-72
2021/04/15 11:02:50;;;;;;;3.75;1.90;;;10.30;45.60;;;;;;5134140;27;20062;-72
2021/04/15 11:05:27;;;;;;;6.40;2.08;;;10.30;47.50;;;;;;5134071;27;20047;-72
2021/04/15 11:07:56;;;;;;;5.22;1.50;;;10.50;47.90;;;;;;5134145;27;20078;-72
2021/04/15 11:10:32;;;;;;;5.00;1.83;;;10.60;45.90;;;;;;5134689;27;20031;-72
2021/04/15 11:13:05;;;;;;;2.08;1.40;;;10.80;45.60;;;;;;5133408;27;20433;-72
2021/04/15 11:15:44;;;;;;;3.08;1.60;;;10.70;46.00;;;;;;5132196;27;20047;-70
2021/04/15 11:18:15;;;;;;;4.63;1.80;;;11.00;46.30;;;;;;5133966;27;20067;-70
2021/04/15 11:20:42;;;;;;;2.70;1.30;;;10.80;45.50;;;;;;5133595;27;20045;-70
2021/04/15 11:23:13;;;;;;;3.30;1.08;;;11.00;45.00;;;;;;5133725;27;20057;-70
2021/04/15 11:25:51;;;;;;;3.28;1.42;;;11.00;45.30;;;;;;5132365;27;20133;-70
2021/04/15 11:28:22;;;;;;;4.38;1.48;;;11.40;44.90;;;;;;5133927;28;20436;-70
2021/04/15 11:30:56;;;;;;;2.63;1.60;;;11.50;44.10;;;;;;5132607;28;20031;-70
2021/04/15 11:33:31;;;;;;;;;;;11.70;44.00;;;;;;5134432;27;20088;-70
2021/04/15 11:36:10;;;;;;;2.85;1.63;;;11.50;44.60;;;;;;5133456;27;19924;-70
2021/04/15 11:38:37;;;;;;;5.35;1.83;;;11.50;43.80;;;;;;5133699;27;20035;-70
2021/04/15 11:41:22;;;;;;;4.50;1.77;;;11.60;44.30;;;;;;5132423;28;20563;-70
2021/04/15 11:44:10;;;;;;;6.03;2.65;;;11.40;43.80;;;;;;5132779;28;20050;-70
2021/04/15 11:46:53;;;;;;;3.53;1.63;;;11.40;45.30;;;;;;5132119;27;20093;-70
2021/04/15 11:49:31;;;;;;;4.60;2.33;;;11.40;42.90;;;;;;5132976;27;20059;-70
2021/04/15 11:51:58;;;;;;;4.35;2.17;;;11.40;44.00;;;;;;5134492;27;20046;-70
2021/04/15 11:54:36;;;;;;;2.58;1.83;;;11.40;45.30;;;;;;5136903;27;20027;-70
2021/04/15 11:57:20;;;;;;;6.60;1.92;;;11.40;45.00;;;;;;5136129;27;20075;-70
2021/04/15 12:00:01;;;;;;;4.53;2.20;;;11.00;46.10;;;;;;5136151;27;20035;-70
2021/04/15 12:03:05;;;;;;;4.43;1.80;;;10.80;47.50;;;;;;5136088;27;20079;-71
2021/04/15 12:05:41;;;;;;;6.32;1.58;;;11.00;47.30;;;;;;5099990;27;20055;-71
2021/04/15 12:08:19;;;;;;;5.53;2.08;;;11.00;47.30;;;;;;5123777;27;20043;-71
2021/04/15 12:11:08;;;;;;;2.60;1.70;;;10.90;47.20;;;;;;5129902;27;20039;-71
2021/04/15 12:13:40;;;;;;;3.35;1.63;;;10.90;43.80;;;;;;5127139;27;20076;-71
2021/04/15 12:16:11;;;;;;;4.53;2.13;;;10.70;44.20;;;;;;5129418;27;20503;-71
2021/04/15 12:18:39;;;;;;;5.03;2.70;;;10.60;45.90;;;;;;5120115;27;20067;-71
2021/04/15 12:21:35;;;;;;;3.17;1.90;;;10.60;48.50;;;;;;5121752;27;20031;-70
2021/04/15 12:24:34;;;;;;;3.45;1.60;;;10.80;49.10;;;;;;5135723;27;20487;-71
2021/04/15 12:27:08;;;;;;;7.13;2.50;;;11.00;50.50;;;;;;5136687;27;20067;-70
2021/04/15 12:29:43;;;;;;;3.47;2.20;;;11.10;48.40;;;;;;5135928;27;20035;-70
2021/04/15 12:32:13;;;;;;;4.18;1.77;;;11.00;45.40;;;;;;5135623;27;20399;-70
2021/04/15 12:35:12;;;;;;;5.32;2.05;;;10.70;44.40;;;;;;5136882;27;20039;-70
2021/04/15 12:37:42;;;;;;;3.42;2.05;;;10.90;45.70;;;;;;5133947;27;20058;-70
2021/04/15 12:40:27;;;;;;;3.08;1.80;;;10.60;46.70;;;;;;5134949;27;20061;-70
2021/04/15 12:43:00;;;;;;;5.32;2.13;;;10.70;47.50;;;;;;5135951;27;20110;-70
2021/04/15 12:45:40;;;;;;;4.57;2.13;;;10.70;49.50;;;;;;5136625;27;20046;-70
2021/04/15 12:48:11;;;;;;;5.32;2.38;;;10.60;49.00;;;;;;5135428;27;20209;-70
2021/04/15 12:50:37;;;;;;;7.60;3.00;;;10.40;49.30;;;;;;5136401;27;20035;-70
2021/04/15 12:53:06;;;;;;;4.45;2.55;;;10.30;50.30;;;;;;5136765;27;20129;-70
2021/04/15 12:55:32;;;;;;;4.28;2.17;;;10.20;50.90;;;;;;5136542;27;20070;-70
2021/04/15 12:58:00;;;;;;;5.97;2.60;;;10.20;51.90;;;;;;5136090;27;20071;-70
2021/04/15 13:00:41;;;;;;;3.95;2.13;;;10.10;53.10;;;;;;5136354;27;20039;-70
2021/04/15 13:03:20;;;;;;;4.10;2.78;;;10.20;52.30;;;;;;5135946;27;20043;-70
2021/04/15 13:05:48;;;;;;;5.68;2.65;;;10.10;52.70;;;;;;5134328;27;20042;-71
2021/04/15 13:08:50;;;;;;;5.10;2.72;;;10.00;52.70;;;;;;5135866;27;20092;-70
2021/04/15 13:11:16;;;;;;;6.55;2.50;;;10.00;54.80;;;;;;5113712;27;20047;-70
2021/04/15 13:13:49;;;;;;;4.97;2.72;;;10.00;54.60;;;;;;5136235;27;20053;-70
2021/04/15 13:16:34;;;;;;;;;;;10.10;52.30;;;;;;5135929;27;20035;-70
2021/04/15 13:19:18;;;;;;;4.63;2.63;;;10.20;50.90;;;;;;5134894;27;20010;-70
2021/04/15 13:22:07;;;;;;;3.85;2.38;;;10.20;51.00;;;;;;5136240;27;20054;-70
2021/04/15 13:24:48;;;;;;;3.65;1.85;;;10.10;53.50;;;;;;5135815;27;20042;-70
2021/04/15 13:27:36;;;;;;;4.38;2.50;;;10.10;53.80;;;;;;5135652;27;20049;-70
2021/04/15 13:30:20;;;;;;;6.47;3.60;;;10.20;53.10;;;;;;5134163;27;20089;-69
2021/04/15 13:33:11;;;;;;;3.67;2.08;;;10.30;51.50;;;;;;5135868;27;20038;-70
2021/04/15 13:35:58;;;;;;;6.57;2.80;;;10.20;51.50;;;;;;5134439;27;20058;-70
2021/04/15 13:41:14;;;;;;;4.65;2.90;;;10.00;52.90;;;;;;5135496;27;20119;-70
2021/04/15 13:43:46;;;;;;;6.45;2.30;;;10.10;51.70;;;;;;5135155;27;20112;-70
2021/04/15 13:46:24;;;;;;;6.28;2.50;;;10.10;52.20;;;;;;5133883;27;20486;-70
2021/04/15 13:48:57;;;;;;;5.95;2.38;;;10.10;52.80;;;;;;5134290;27;20039;-70
2021/04/15 13:51:44;;;;;;;5.07;2.60;;;10.00;52.80;;;;;;5135605;27;20176;-71
2021/04/15 13:54:26;;;;;;;4.25;2.03;;;9.90;52.30;;;;;;5134957;27;20436;-70
2021/04/15 13:57:02;;;;;;;4.22;2.30;;;10.00;53.30;;;;;;5134839;27;20039;-69
2021/04/15 13:59:45;;;;;;;6.10;2.72;;;10.10;52.60;;;;;;5135165;27;20498;-70